Time;durP1;ratioP1;P1;durP2;ratioP2;P2;SDS_P1;SDS_P2;PMS_P1;PMS_P2;Temp;Humidity;BMP_temperature;BMP_pressure;BME280_temperature;BME280_humidity;BME280_pressure;Samples;Min_cycle;Max_cycle;Signal;HPM_P1;HPM_P2
2022/07/01 00:01:27;;;;;;;0.20;0.20;;;19.10;99.90;;;;;;5034193;28;20217;-84
2022/07/01 00:03:53;;;;;;;0.10;0.10;;;19.10;99.90;;;;;;5033981;28;20190;-83
2022/07/01 00:06:19;;;;;;;0.10;0.10;;;19.10;99.90;;;;;;5033624;28;20733;-83
2022/07/01 00:08:45;;;;;;;0.20;0.10;;;19.00;99.90;;;;;;5033587;28;20210;-84
2022/07/01 00:11:11;;;;;;;0.20;0.20;;;19.00;99.90;;;;;;5035343;28;20251;-83
2022/07/01 00:13:37;;;;;;;0.10;0.10;;;18.80;99.90;;;;;;5040492;28;20667;-84
2022/07/01 00:16:03;;;;;;;0.27;0.27;;;18.70;99.90;;;;;;5035977;28;20193;-83
2022/07/01 00:18:29;;;;;;;0.20;0.20;;;18.70;99.90;;;;;;5036159;28;20714;-84
2022/07/01 00:20:55;;;;;;;0.50;0.27;;;18.70;99.90;;;;;;5035920;28;20265;-84
2022/07/01 00:23:20;;;;;;;0.10;0.10;;;18.70;99.90;;;;;;5034323;28;20281;-84
2022/07/01 00:25:46;;;;;;;0.10;0.10;;;18.60;99.90;;;;;;5033220;28;20228;-84
2022/07/01 00:28:12;;;;;;;0.10;0.10;;;18.70;99.90;;;;;;5034511;28;20194;-84
2022/07/01 00:30:38;;;;;;;0.20;0.20;;;18.80;99.90;;;;;;5035374;28;20691;-83
2022/07/01 00:33:04;;;;;;;0.10;0.10;;;18.90;99.90;;;;;;5035575;28;20182;-84
2022/07/01 00:35:30;;;;;;;0.40;0.40;;;18.80;99.90;;;;;;5035441;28;20649;-84
2022/07/01 00:37:56;;;;;;;0.27;0.20;;;18.80;99.90;;;;;;5034587;28;20372;-84
2022/07/01 00:40:23;;;;;;;0.10;0.10;;;18.80;99.90;;;;;;5037579;28;20206;-83
2022/07/01 00:42:49;;;;;;;0.20;0.20;;;18.70;99.90;;;;;;5057568;28;20552;-84
2022/07/01 00:45:14;;;;;;;0.10;0.10;;;18.60;99.90;;;;;;5035478;28;20190;-84
2022/07/01 00:47:42;;;;;;;0.10;0.10;;;18.40;99.90;;;;;;5037064;28;20196;-84
2022/07/01 00:50:10;;;;;;;0.10;0.10;;;18.40;99.90;;;;;;5034692;28;20229;-83
2022/07/01 00:52:36;;;;;;;0.10;0.10;;;18.20;99.90;;;;;;5035771;28;20221;-83
2022/07/01 00:55:07;;;;;;;0.27;0.27;;;18.10;99.90;;;;;;5034294;28;20236;-83
2022/07/01 00:57:35;;;;;;;0.20;0.20;;;18.10;99.90;;;;;;5035142;28;20174;-83
2022/07/01 01:00:07;;;;;;;0.20;0.20;;;18.10;99.90;;;;;;5036412;28;20262;-83
2022/07/01 01:02:33;;;;;;;0.13;0.13;;;17.90;99.90;;;;;;5034887;28;20181;-83
2022/07/01 01:04:58;;;;;;;0.10;0.10;;;17.90;99.90;;;;;;5035690;28;20225;-84
2022/07/01 01:07:25;;;;;;;0.17;0.17;;;17.80;99.90;;;;;;5034601;28;20288;-83
2022/07/01 01:09:50;;;;;;;0.73;0.20;;;17.70;99.90;;;;;;5035698;28;20351;-84
2022/07/01 01:12:17;;;;;;;0.13;0.13;;;17.70;99.90;;;;;;5034766;28;20698;-83
2022/07/01 01:14:44;;;;;;;0.10;0.10;;;17.60;99.90;;;;;;5035357;28;20190;-83
2022/07/01 01:17:10;;;;;;;0.10;0.10;;;17.70;99.90;;;;;;5036644;28;20190;-83
2022/07/01 01:19:36;;;;;;;0.10;0.10;;;17.60;99.90;;;;;;5046491;28;20709;-83
2022/07/01 01:22:01;;;;;;;0.20;0.20;;;17.60;99.90;;;;;;5061592;28;20274;-84
2022/07/01 01:24:27;;;;;;;0.10;0.10;;;17.60;99.90;;;;;;5048215;28;20296;-85
2022/07/01 01:26:52;;;;;;;0.30;0.30;;;17.70;99.90;;;;;;5046888;28;20286;-83
2022/07/01 01:29:18;;;;;;;0.17;0.17;;;17.70;99.90;;;;;;5051027;28;20218;-84
2022/07/01 01:31:43;;;;;;;0.10;0.10;;;17.70;99.90;;;;;;5047311;28;21827;-84
2022/07/01 01:34:09;;;;;;;0.10;0.10;;;17.70;99.90;;;;;;5048888;28;20193;-84
2022/07/01 01:36:35;;;;;;;0.10;0.10;;;17.80;99.90;;;;;;5069664;28;20177;-83
2022/07/01 01:39:22;;;;;;;0.10;0.10;;;17.70;99.90;;;;;;5044573;28;20209;-84
2022/07/01 01:41:47;;;;;;;0.10;0.10;;;17.70;99.90;;;;;;5042269;28;20199;-83
2022/07/01 01:44:13;;;;;;;0.10;0.10;;;17.60;99.90;;;;;;5042022;28;20209;-84
2022/07/01 01:46:39;;;;;;;0.20;0.20;;;17.50;99.90;;;;;;5042300;28;20681;-84
2022/07/01 01:49:05;;;;;;;0.10;0.10;;;17.40;99.90;;;;;;5041463;28;20217;-83
2022/07/01 01:51:31;;;;;;;0.10;0.10;;;17.40;99.90;;;;;;5042205;28;20213;-82
2022/07/01 01:53:58;;;;;;;0.10;0.10;;;17.40;99.90;;;;;;5063699;28;20572;-84
2022/07/01 01:56:24;;;;;;;0.27;0.27;;;17.40;99.90;;;;;;5041789;28;20259;-83
2022/07/01 01:58:50;;;;;;;0.10;0.10;;;17.30;99.90;;;;;;5041469;28;20209;-83
2022/07/01 02:01:16;;;;;;;0.10;0.10;;;17.30;99.90;;;;;;5041212;28;20726;-84
2022/07/01 02:03:43;;;;;;;0.30;0.30;;;17.30;99.90;;;;;;5039543;28;20190;-83
2022/07/01 02:06:10;;;;;;;0.10;0.10;;;17.40;99.90;;;;;;5040679;28;20207;-85
2022/07/01 02:08:39;;;;;;;0.10;0.10;;;17.40;99.90;;;;;;5045868;28;20217;-84
2022/07/01 02:11:06;;;;;;;0.17;0.17;;;17.40;99.90;;;;;;5046321;28;20224;-84
2022/07/01 02:13:32;;;;;;;0.10;0.10;;;17.30;99.90;;;;;;5062461;28;20186;-83
2022/07/01 02:15:58;;;;;;;0.10;0.10;;;17.30;99.90;;;;;;5040395;28;20333;-83
2022/07/01 02:18:24;;;;;;;0.10;0.10;;;17.30;99.90;;;;;;5038796;28;20273;-84
2022/07/01 02:20:50;;;;;;;0.10;0.10;;;17.30;99.90;;;;;;5046216;28;20251;-83
2022/07/01 02:23:16;;;;;;;0.20;0.10;;;17.30;99.90;;;;;;5041879;28;20190;-84
2022/07/01 02:25:42;;;;;;;0.60;0.10;;;17.40;99.90;;;;;;5039857;28;20677;-83
2022/07/01 02:28:08;;;;;;;0.43;0.43;;;17.20;99.90;;;;;;5040807;28;20202;-84
2022/07/01 02:30:36;;;;;;;0.10;0.10;;;17.20;99.90;;;;;;5046303;28;20218;-83
2022/07/01 02:33:03;;;;;;;0.10;0.10;;;17.20;99.90;;;;;;5040192;28;20182;-84
2022/07/01 02:35:29;;;;;;;0.10;0.10;;;17.20;99.90;;;;;;5038270;28;20197;-83
2022/07/01 02:37:55;;;;;;;0.60;0.60;;;17.20;99.90;;;;;;5040844;28;20186;-83
2022/07/01 02:40:21;;;;;;;0.10;0.10;;;17.10;99.90;;;;;;5039502;28;20570;-84
2022/07/01 02:42:47;;;;;;;0.10;0.10;;;17.10;99.90;;;;;;5037634;28;20189;-83
2022/07/01 02:45:12;;;;;;;0.10;0.10;;;17.10;99.90;;;;;;5037147;28;20182;-83
2022/07/01 02:47:40;;;;;;;0.20;0.20;;;17.10;99.90;;;;;;5040927;28;20198;-83
2022/07/01 02:50:08;;;;;;;0.20;0.20;;;17.00;99.90;;;;;;5039746;28;20584;-83
2022/07/01 02:52:34;;;;;;;0.10;0.10;;;17.00;99.90;;;;;;5038511;28;20666;-84
2022/07/01 02:55:05;;;;;;;0.20;0.20;;;17.00;99.90;;;;;;5036941;28;20219;-84
2022/07/01 02:57:30;;;;;;;0.10;0.10;;;16.90;99.90;;;;;;5038940;28;20190;-83
2022/07/01 02:59:56;;;;;;;0.10;0.10;;;16.90;99.90;;;;;;5040254;28;20271;-83
2022/07/01 03:02:23;;;;;;;0.10;0.10;;;16.90;99.90;;;;;;5045048;28;20283;-82
2022/07/01 03:04:49;;;;;;;0.10;0.10;;;16.90;99.90;;;;;;5038744;28;20186;-83
2022/07/01 03:07:16;;;;;;;0.20;0.20;;;16.90;99.90;;;;;;5059633;28;20210;-83
2022/07/01 03:09:43;;;;;;;0.10;0.10;;;16.80;99.90;;;;;;5038386;28;20248;-83
2022/07/01 03:12:25;;;;;;;0.10;0.10;;;16.90;99.90;;;;;;5037542;28;20216;-84
2022/07/01 03:14:56;;;;;;;0.10;0.10;;;16.70;99.90;;;;;;5034673;28;20246;-83
2022/07/01 03:17:22;;;;;;;0.10;0.10;;;16.80;99.90;;;;;;5044172;28;20859;-84
2022/07/01 03:19:48;;;;;;;0.30;0.30;;;16.80;99.90;;;;;;5043012;28;20216;-84
2022/07/01 03:22:14;;;;;;;0.10;0.10;;;16.80;99.90;;;;;;5037133;28;20193;-83
2022/07/01 03:24:40;;;;;;;0.10;0.10;;;16.90;99.90;;;;;;5036141;28;20191;-83
2022/07/01 03:27:05;;;;;;;0.10;0.10;;;16.80;99.90;;;;;;5037373;28;20668;-83
2022/07/01 03:29:31;;;;;;;0.10;0.10;;;16.80;99.90;;;;;;5037994;28;20205;-83
2022/07/01 03:31:56;;;;;;;0.07;0.07;;;16.90;99.90;;;;;;5035248;28;20255;-83
2022/07/01 03:34:22;;;;;;;0.37;0.37;;;17.00;99.90;;;;;;5036676;28;20205;-83
2022/07/01 03:36:47;;;;;;;0.10;0.10;;;17.10;99.90;;;;;;5036062;28;20189;-84
2022/07/01 03:39:13;;;;;;;0.10;0.10;;;17.10;99.90;;;;;;5035204;28;20210;-83
2022/07/01 03:41:39;;;;;;;0.10;0.10;;;17.10;99.90;;;;;;5037497;28;20200;-83
2022/07/01 03:44:05;;;;;;;0.10;0.10;;;17.10;99.90;;;;;;5035819;28;20235;-85
2022/07/01 03:46:31;;;;;;;0.10;0.10;;;17.10;99.90;;;;;;5036682;28;20193;-84
2022/07/01 03:49:00;;;;;;;0.10;0.10;;;17.10;99.90;;;;;;5035789;28;20228;-83
2022/07/01 03:51:26;;;;;;;0.20;0.20;;;17.20;99.90;;;;;;5036693;28;20283;-83
2022/07/01 03:56:35;;;;;;;0.13;0.13;;;17.20;99.90;;;;;;5037116;28;20187;-84
2022/07/01 03:59:01;;;;;;;0.30;0.30;;;17.20;99.90;;;;;;5037476;28;20262;-83
2022/07/01 04:01:26;;;;;;;0.10;0.10;;;17.20;99.90;;;;;;5033774;28;20291;-82
2022/07/01 04:03:52;;;;;;;0.20;0.20;;;17.10;99.90;;;;;;5038145;28;20780;-84
2022/07/01 04:06:18;;;;;;;0.20;0.20;;;17.00;99.90;;;;;;5037102;28;20198;-83
2022/07/01 04:08:44;;;;;;;0.10;0.10;;;16.90;99.90;;;;;;5043666;28;20325;-84
2022/07/01 04:11:09;;;;;;;0.17;0.17;;;16.90;99.90;;;;;;5036747;28;20239;-84
2022/07/01 04:13:39;;;;;;;0.10;0.10;;;16.90;99.90;;;;;;5035380;28;20663;-83
2022/07/01 04:16:05;;;;;;;0.10;0.10;;;16.80;99.90;;;;;;5037763;28;20284;-84
2022/07/01 04:18:31;;;;;;;0.10;0.10;;;16.80;99.90;;;;;;5035588;28;20182;-84
2022/07/01 04:23:42;;;;;;;0.10;0.10;;;16.70;99.90;;;;;;5037474;28;20685;-84
2022/07/01 04:26:08;;;;;;;0.10;0.10;;;16.80;99.90;;;;;;5042875;28;20397;-83
2022/07/01 04:28:33;;;;;;;0.10;0.10;;;16.70;99.90;;;;;;5043394;28;20186;-83
2022/07/01 04:30:59;;;;;;;0.10;0.10;;;16.80;99.90;;;;;;5033317;28;20671;-83
2022/07/01 04:33:25;;;;;;;0.10;0.10;;;16.60;99.90;;;;;;5035403;28;20186;-83
2022/07/01 04:35:51;;;;;;;0.10;0.10;;;16.60;99.90;;;;;;5034352;28;20269;-84
2022/07/01 04:38:16;;;;;;;0.20;0.20;;;16.60;99.90;;;;;;5032911;28;20253;-85
2022/07/01 04:41:58;;;;;;;0.20;0.20;;;16.70;99.90;;;;;;5035562;28;20269;-84
2022/07/01 04:43:28;;;;;;;3.97;0.30;;;16.70;99.90;;;;;;5035611;28;20201;-83
2022/07/01 04:45:54;;;;;;;0.10;0.10;;;16.80;99.90;;;;;;5035546;28;20205;-84
2022/07/01 04:48:20;;;;;;;0.13;0.13;;;16.80;99.90;;;;;;5035237;28;20194;-83
2022/07/01 04:50:46;;;;;;;0.20;0.20;;;16.80;99.90;;;;;;5035056;28;20222;-84
2022/07/01 04:53:13;;;;;;;0.10;0.10;;;16.70;99.90;;;;;;5037403;28;20201;-83
2022/07/01 04:55:39;;;;;;;0.13;0.13;;;16.70;99.90;;;;;;5038438;28;20228;-84
2022/07/01 04:58:04;;;;;;;0.10;0.10;;;16.70;99.90;;;;;;5063568;28;20805;-84
2022/07/01 05:00:30;;;;;;;0.10;0.10;;;16.70;99.90;;;;;;5039439;28;20205;-83
2022/07/01 05:02:56;;;;;;;0.10;0.10;;;16.70;99.90;;;;;;5040930;28;20768;-82
2022/07/01 05:05:21;;;;;;;0.23;0.23;;;16.80;99.90;;;;;;5039252;28;20271;-84
2022/07/01 05:07:47;;;;;;;0.10;0.10;;;16.90;99.90;;;;;;5046815;28;20216;-83
2022/07/01 05:10:13;;;;;;;0.10;0.10;;;16.70;99.90;;;;;;5040254;28;20343;-83
2022/07/01 05:12:38;;;;;;;0.10;0.10;;;16.80;99.90;;;;;;5039747;28;20546;-83
2022/07/01 05:15:05;;;;;;;0.10;0.10;;;17.10;99.90;;;;;;5037878;28;21265;-83
2022/07/01 05:22:58;;;;;;;0.20;0.17;;;17.30;99.90;;;;;;5038930;28;20243;-81
2022/07/01 05:25:24;;;;;;;0.17;0.17;;;17.40;99.90;;;;;;5039065;28;20478;-81
2022/07/01 05:27:50;;;;;;;0.10;0.10;;;17.60;99.90;;;;;;5039896;28;20265;-82
2022/07/01 05:30:15;;;;;;;0.30;0.20;;;17.80;99.90;;;;;;5038073;28;20229;-82
2022/07/01 05:32:41;;;;;;;0.10;0.10;;;18.10;99.90;;;;;;5036573;28;20178;-82
2022/07/01 05:35:07;;;;;;;0.10;0.10;;;17.90;99.90;;;;;;5043442;28;20188;-83
2022/07/01 05:37:32;;;;;;;0.10;0.10;;;18.20;99.90;;;;;;5040170;28;20186;-82
2022/07/01 05:39:58;;;;;;;0.10;0.10;;;18.20;99.90;;;;;;5040125;28;20213;-82
2022/07/01 05:42:23;;;;;;;0.20;0.20;;;18.10;99.90;;;;;;5041917;28;20186;-82
2022/07/01 05:44:49;;;;;;;0.17;0.17;;;18.10;99.90;;;;;;5043081;28;20235;-83
2022/07/01 05:47:14;;;;;;;0.10;0.10;;;18.00;99.90;;;;;;5039322;28;21263;-84
2022/07/01 05:49:40;;;;;;;0.10;0.10;;;17.90;99.90;;;;;;5038552;28;20202;-83
2022/07/01 05:52:06;;;;;;;0.10;0.10;;;17.80;99.90;;;;;;5037655;28;20355;-83
2022/07/01 05:54:31;;;;;;;1.53;0.47;;;17.80;99.90;;;;;;5038888;28;20635;-82
2022/07/01 05:56:57;;;;;;;0.10;0.10;;;17.70;99.90;;;;;;5038512;28;20182;-83
2022/07/01 05:59:22;;;;;;;0.33;0.30;;;17.80;99.90;;;;;;5040135;28;20403;-82
2022/07/01 06:01:50;;;;;;;0.10;0.10;;;18.00;99.90;;;;;;5040870;28;20246;-84
2022/07/01 06:04:16;;;;;;;0.10;0.10;;;18.00;99.90;;;;;;5044811;28;20248;-83
2022/07/01 06:06:42;;;;;;;0.10;0.10;;;18.20;99.90;;;;;;5039586;28;20231;-84
2022/07/01 06:09:07;;;;;;;0.10;0.10;;;18.20;99.90;;;;;;5038776;28;20216;-84
2022/07/01 06:11:33;;;;;;;0.10;0.10;;;18.40;99.90;;;;;;5038193;28;20281;-83
2022/07/01 06:13:59;;;;;;;1.37;0.20;;;18.80;99.90;;;;;;5038462;28;20190;-83
2022/07/01 06:16:24;;;;;;;0.10;0.10;;;18.90;99.90;;;;;;5036986;28;20671;-83
2022/07/01 06:18:50;;;;;;;0.13;0.13;;;18.80;99.90;;;;;;5038322;28;20210;-82
2022/07/01 06:21:16;;;;;;;0.13;0.13;;;18.90;99.90;;;;;;5037179;28;20676;-83
2022/07/01 06:23:42;;;;;;;0.20;0.20;;;19.00;99.90;;;;;;5035743;28;20189;-84
2022/07/01 06:26:08;;;;;;;0.40;0.40;;;19.10;99.90;;;;;;5037028;28;20300;-83
2022/07/01 06:28:33;;;;;;;0.30;0.30;;;19.00;99.90;;;;;;5036128;28;20259;-83
2022/07/01 06:30:59;;;;;;;0.13;0.10;;;19.20;99.90;;;;;;5035031;28;20284;-82
2022/07/01 06:33:25;;;;;;;0.63;0.10;;;19.30;99.90;;;;;;5035076;28;20190;-84
2022/07/01 06:35:51;;;;;;;0.10;0.10;;;19.50;99.90;;;;;;5036317;28;20180;-83
2022/07/01 06:38:16;;;;;;;0.10;0.10;;;19.60;99.90;;;;;;5035329;28;20185;-83
2022/07/01 06:40:42;;;;;;;0.20;0.20;;;19.90;99.90;;;;;;5038269;28;20194;-82
2022/07/01 06:43:07;;;;;;;0.20;0.20;;;19.90;99.90;;;;;;5035104;28;20206;-82
2022/07/01 06:45:33;;;;;;;0.10;0.10;;;20.10;99.90;;;;;;5033326;28;21147;-83
2022/07/01 06:47:58;;;;;;;0.20;0.20;;;20.00;99.90;;;;;;5037030;28;20578;-82
2022/07/01 06:50:24;;;;;;;0.20;0.20;;;19.70;99.90;;;;;;5035582;28;20657;-84
2022/07/01 06:52:50;;;;;;;0.30;0.30;;;19.90;99.90;;;;;;5033176;28;20845;-82
2022/07/01 06:55:15;;;;;;;0.43;0.33;;;19.80;99.90;;;;;;5033846;28;20202;-82
2022/07/01 06:57:41;;;;;;;0.10;0.10;;;19.70;99.90;;;;;;5037405;28;20204;-84
2022/07/01 07:00:07;;;;;;;0.20;0.20;;;19.70;99.90;;;;;;5033282;28;21060;-83
2022/07/01 07:02:32;;;;;;;0.10;0.10;;;19.70;99.90;;;;;;5035910;28;20217;-83
2022/07/01 07:04:58;;;;;;;0.20;0.20;;;19.90;99.90;;;;;;5034243;28;20273;-83
2022/07/01 07:07:24;;;;;;;0.17;0.17;;;19.80;99.90;;;;;;5035078;28;20210;-83
2022/07/01 07:09:50;;;;;;;0.30;0.30;;;19.60;99.90;;;;;;5034170;28;20726;-82
2022/07/01 07:12:15;;;;;;;0.20;0.20;;;19.20;99.90;;;;;;5034241;28;20197;-82
2022/07/01 07:14:41;;;;;;;4.00;0.33;;;19.00;99.90;;;;;;5033906;28;20681;-82
2022/07/01 07:17:06;;;;;;;1.73;0.23;;;18.90;99.90;;;;;;5036515;28;20213;-82
2022/07/01 07:19:32;;;;;;;0.30;0.30;;;18.70;99.90;;;;;;5036501;28;20205;-83
2022/07/01 07:21:58;;;;;;;0.10;0.10;;;18.50;99.90;;;;;;5036702;28;20547;-83
2022/07/01 07:24:23;;;;;;;0.20;0.20;;;18.40;99.90;;;;;;5037628;28;20189;-84
2022/07/01 07:26:49;;;;;;;0.30;0.30;;;18.20;99.90;;;;;;5037633;28;20643;-83
2022/07/01 07:29:14;;;;;;;0.30;0.30;;;18.20;99.90;;;;;;5036677;28;20238;-82
2022/07/01 07:31:40;;;;;;;0.10;0.10;;;18.20;99.90;;;;;;5036347;28;20210;-83
2022/07/01 07:34:05;;;;;;;0.20;0.20;;;18.20;99.90;;;;;;5029674;28;20194;-82
2022/07/01 07:36:31;;;;;;;0.20;0.20;;;18.20;99.90;;;;;;5040691;28;20182;-83
2022/07/01 07:38:58;;;;;;;0.10;0.10;;;18.20;99.90;;;;;;5034805;28;20583;-81
2022/07/01 07:41:24;;;;;;;0.10;0.10;;;18.00;99.90;;;;;;5041508;28;20191;-83
2022/07/01 07:43:49;;;;;;;0.20;0.20;;;18.00;99.90;;;;;;5040132;28;20201;-83
2022/07/01 07:46:15;;;;;;;0.27;0.17;;;18.00;99.90;;;;;;5041521;28;20185;-83
2022/07/01 07:48:43;;;;;;;0.40;0.30;;;17.90;99.90;;;;;;5046765;28;20241;-82
2022/07/01 07:51:09;;;;;;;0.10;0.10;;;17.80;99.90;;;;;;5040049;28;20259;-83
2022/07/01 07:53:34;;;;;;;0.10;0.10;;;17.90;99.90;;;;;;5040582;28;20182;-83
2022/07/01 07:56:00;;;;;;;0.20;0.20;;;18.10;99.90;;;;;;5040409;28;20235;-83
2022/07/01 07:58:26;;;;;;;0.37;0.30;;;18.10;99.90;;;;;;5034533;28;20189;-82
2022/07/01 08:00:52;;;;;;;0.20;0.20;;;18.20;99.90;;;;;;5033791;28;20705;-82
2022/07/01 08:03:17;;;;;;;2.10;0.20;;;18.10;99.90;;;;;;5036093;28;20177;-82
2022/07/01 08:05:43;;;;;;;0.20;0.20;;;18.10;99.90;;;;;;5034573;28;20187;-82
2022/07/01 08:08:08;;;;;;;0.20;0.20;;;18.10;99.90;;;;;;5034550;28;20194;-82
2022/07/01 08:10:34;;;;;;;0.17;0.17;;;18.10;99.90;;;;;;5035445;28;20206;-83
2022/07/01 08:13:03;;;;;;;0.20;0.20;;;18.10;99.90;;;;;;5036812;28;20186;-85
2022/07/01 08:15:30;;;;;;;0.23;0.23;;;18.20;99.90;;;;;;5033816;28;20178;-83
2022/07/01 08:17:56;;;;;;;0.30;0.30;;;18.40;99.90;;;;;;5035084;28;20186;-83
2022/07/01 08:20:21;;;;;;;0.30;0.30;;;18.40;99.90;;;;;;5036353;28;20227;-82
2022/07/01 08:22:47;;;;;;;0.10;0.10;;;18.50;99.90;;;;;;5039943;28;20193;-82
2022/07/01 08:25:13;;;;;;;0.10;0.10;;;18.60;99.90;;;;;;5040770;28;20285;-83
2022/07/01 08:27:39;;;;;;;0.10;0.10;;;18.90;99.90;;;;;;5039572;28;20182;-83
2022/07/01 08:30:06;;;;;;;0.10;0.10;;;19.10;99.90;;;;;;5037371;28;20198;-82
2022/07/01 08:32:32;;;;;;;0.80;0.20;;;19.30;99.90;;;;;;5039828;28;20284;-84
2022/07/01 08:34:57;;;;;;;0.30;0.30;;;19.40;99.90;;;;;;5038848;28;20257;-82
2022/07/01 08:37:23;;;;;;;0.10;0.10;;;19.50;99.90;;;;;;5038042;28;20681;-83
2022/07/01 08:39:48;;;;;;;0.33;0.20;;;19.30;99.90;;;;;;5044248;28;21150;-84
2022/07/01 08:42:14;;;;;;;0.20;0.20;;;19.40;99.90;;;;;;5037696;28;20196;-83
2022/07/01 08:44:40;;;;;;;0.20;0.20;;;19.60;99.90;;;;;;5036408;28;20209;-83
2022/07/01 08:47:11;;;;;;;0.10;0.10;;;19.90;99.90;;;;;;5039405;28;20208;-82
2022/07/01 08:49:36;;;;;;;0.10;0.10;;;20.10;99.90;;;;;;5038659;28;20215;-83
2022/07/01 08:52:02;;;;;;;0.10;0.10;;;19.80;99.90;;;;;;5037258;28;20217;-83
2022/07/01 08:54:28;;;;;;;0.10;0.10;;;20.00;99.90;;;;;;5036801;28;20188;-83
2022/07/01 08:56:53;;;;;;;0.17;0.17;;;20.00;99.90;;;;;;5036928;28;20193;-83
2022/07/01 08:59:26;;;;;;;0.20;0.20;;;19.70;99.90;;;;;;5043721;28;20206;-83
2022/07/01 09:02:00;;;;;;;0.50;0.50;;;19.90;99.90;;;;;;5037022;28;20231;-85
2022/07/01 09:04:27;;;;;;;0.10;0.10;;;19.80;99.90;;;;;;5039180;28;20689;-83
2022/07/01 09:07:01;;;;;;;0.40;0.40;;;19.60;99.90;;;;;;5036230;28;20186;-85
2022/07/01 09:09:27;;;;;;;0.30;0.30;;;19.50;99.90;;;;;;5036818;28;20209;-83
2022/07/01 09:11:54;;;;;;;0.10;0.10;;;19.60;99.90;;;;;;5035389;28;20210;-84
2022/07/01 09:14:26;;;;;;;0.33;0.23;;;19.70;99.90;;;;;;5038555;28;20327;-84
2022/07/01 09:16:55;;;;;;;1.03;0.33;;;19.60;99.90;;;;;;5036026;28;20185;-83
2022/07/01 09:19:22;;;;;;;0.10;0.10;;;19.50;99.90;;;;;;5059512;28;20347;-83
2022/07/01 09:21:53;;;;;;;0.30;0.30;;;19.60;99.90;;;;;;5037911;28;20764;-83
2022/07/01 09:24:33;;;;;;;0.20;0.20;;;19.40;99.90;;;;;;5061729;28;20193;-82
2022/07/01 09:27:00;;;;;;;0.20;0.20;;;19.30;99.90;;;;;;5037117;28;20185;-82
2022/07/01 09:29:33;;;;;;;0.10;0.10;;;19.00;99.90;;;;;;5037968;28;20206;-83
2022/07/01 09:32:02;;;;;;;0.30;0.30;;;19.30;99.90;;;;;;5042307;28;20211;-83
2022/07/01 09:34:42;;;;;;;0.10;0.10;;;19.60;99.90;;;;;;5041571;28;20561;-83
2022/07/01 09:37:08;;;;;;;0.30;0.30;;;19.70;99.90;;;;;;5042205;28;20639;-84
2022/07/01 09:39:48;;;;;;;0.80;0.50;;;20.00;99.90;;;;;;5043874;28;20302;-83
2022/07/01 09:42:17;;;;;;;0.20;0.20;;;20.20;99.90;;;;;;5038041;28;20636;-83
2022/07/01 09:45:11;;;;;;;0.10;0.10;;;20.20;99.90;;;;;;5036841;28;20205;-83
2022/07/01 09:47:40;;;;;;;0.57;0.57;;;20.30;99.90;;;;;;5038258;28;20199;-83
2022/07/01 09:50:07;;;;;;;0.27;0.27;;;20.60;99.90;;;;;;5037524;28;20208;-83
2022/07/01 09:52:33;;;;;;;0.20;0.20;;;20.90;99.90;;;;;;5037109;28;20208;-85
2022/07/01 09:54:58;;;;;;;0.23;0.23;;;21.10;99.90;;;;;;5036785;28;20698;-83
2022/07/01 09:57:24;;;;;;;1.43;0.40;;;21.20;99.90;;;;;;5038432;28;20194;-83
2022/07/01 09:59:51;;;;;;;0.20;0.20;;;21.60;99.90;;;;;;5037713;28;20749;-83
2022/07/01 10:02:21;;;;;;;0.17;0.17;;;21.90;99.90;;;;;;5036324;28;20201;-84
2022/07/01 10:05:01;;;;;;;0.30;0.30;;;22.30;99.90;;;;;;5034872;28;20210;-83
2022/07/01 10:07:37;;;;;;;0.70;0.17;;;22.70;99.90;;;;;;5036944;28;20193;-84
2022/07/01 10:10:27;;;;;;;0.10;0.10;;;23.00;99.90;;;;;;5035897;28;20210;-83
2022/07/01 10:12:54;;;;;;;0.10;0.10;;;23.50;99.90;;;;;;5043610;28;21022;-84
2022/07/01 10:15:21;;;;;;;0.20;0.20;;;23.70;99.90;;;;;;5033614;28;20278;-83
2022/07/01 10:17:49;;;;;;;0.20;0.20;;;24.10;99.90;;;;;;5042459;28;20292;-83
2022/07/01 10:20:18;;;;;;;0.30;0.30;;;24.60;99.90;;;;;;5037244;28;20208;-82
2022/07/01 10:22:45;;;;;;;0.30;0.30;;;24.40;99.90;;;;;;5036660;28;20197;-84
2022/07/01 10:25:31;;;;;;;0.20;0.20;;;24.10;99.90;;;;;;5033975;28;20189;-83
2022/07/01 10:28:15;;;;;;;0.30;0.30;;;23.80;99.90;;;;;;5057670;28;20272;-84
2022/07/01 10:30:59;;;;;;;0.20;0.20;;;23.40;99.90;;;;;;5036240;28;20209;-83
2022/07/01 10:33:56;;;;;;;0.60;0.20;;;23.30;99.90;;;;;;5037694;28;20235;-83
2022/07/01 10:36:22;;;;;;;0.20;0.20;;;23.20;99.90;;;;;;5034470;28;20186;-84
2022/07/01 10:39:03;;;;;;;0.20;0.20;;;23.00;99.90;;;;;;5034495;28;20205;-83
2022/07/01 10:41:31;;;;;;;1.37;0.37;;;23.00;99.90;;;;;;5058495;28;20201;-84
2022/07/01 10:43:57;;;;;;;0.20;0.20;;;23.20;99.90;;;;;;5034921;28;20201;-83
2022/07/01 10:46:50;;;;;;;0.17;0.17;;;23.10;99.90;;;;;;5036493;28;20186;-83
2022/07/01 10:49:38;;;;;;;0.20;0.20;;;23.60;99.90;;;;;;5038887;28;20233;-82
2022/07/01 10:52:07;;;;;;;0.20;0.20;;;24.10;99.90;;;;;;5057034;28;20202;-83
2022/07/01 10:54:36;;;;;;;0.30;0.30;;;24.00;99.90;;;;;;5037760;28;20206;-83
2022/07/01 10:57:36;;;;;;;0.33;0.33;;;23.90;99.90;;;;;;5034555;28;20194;-83
2022/07/01 11:00:01;;;;;;;0.30;0.30;;;24.00;99.90;;;;;;5032431;28;20229;-83
2022/07/01 11:02:32;;;;;;;0.20;0.20;;;24.10;99.90;;;;;;5035250;28;20186;-83
2022/07/01 11:04:59;;;;;;;0.20;0.20;;;24.60;99.90;;;;;;5057707;28;20315;-84
2022/07/01 11:07:27;;;;;;;0.20;0.20;;;24.90;99.90;;;;;;5041370;28;20185;-83
2022/07/01 11:09:52;;;;;;;0.20;0.20;;;24.70;99.90;;;;;;5039824;28;20503;-83
2022/07/01 11:12:20;;;;;;;0.27;0.20;;;25.00;99.90;;;;;;5039785;28;21359;-83
2022/07/01 11:14:46;;;;;;;0.73;0.73;;;25.20;99.90;;;;;;5039656;28;20277;-82
2022/07/01 11:17:12;;;;;;;0.20;0.20;;;25.50;99.90;;;;;;5039178;28;20216;-83
2022/07/01 11:19:37;;;;;;;0.20;0.20;;;25.40;99.90;;;;;;5041184;28;20202;-83
2022/07/01 11:22:05;;;;;;;0.20;0.20;;;25.30;99.90;;;;;;5040457;28;20194;-83
2022/07/01 11:24:31;;;;;;;0.10;0.10;;;25.20;99.90;;;;;;5042432;28;20181;-84
2022/07/01 11:27:06;;;;;;;0.30;0.30;;;25.10;99.90;;;;;;5039757;28;20217;-83
2022/07/01 11:29:32;;;;;;;0.20;0.20;;;25.30;99.90;;;;;;5043018;28;20205;-83
2022/07/01 11:31:57;;;;;;;0.20;0.20;;;25.40;99.90;;;;;;5042645;28;20252;-83
2022/07/01 11:34:26;;;;;;;0.20;0.20;;;24.80;99.90;;;;;;5041228;28;20217;-83
2022/07/01 11:39:36;;;;;;;0.40;0.40;;;24.40;99.90;;;;;;5042754;28;20698;-83
2022/07/01 11:42:06;;;;;;;0.30;0.30;;;24.00;99.90;;;;;;5041435;28;20181;-83
2022/07/01 11:44:32;;;;;;;0.20;0.20;;;23.90;99.90;;;;;;5044148;28;20217;-83
2022/07/01 11:46:59;;;;;;;0.80;0.57;;;24.10;99.90;;;;;;5034262;28;20566;-83
2022/07/01 11:49:25;;;;;;;0.27;0.20;;;24.10;99.90;;;;;;5044166;28;20917;-82
2022/07/01 11:52:10;;;;;;;0.20;0.20;;;24.20;99.90;;;;;;5037855;28;20210;-85
2022/07/01 11:54:39;;;;;;;0.63;0.63;;;24.60;99.90;;;;;;5037219;28;20222;-83
2022/07/01 11:57:17;;;;;;;0.20;0.20;;;24.80;99.90;;;;;;5037011;28;20739;-84
2022/07/01 11:59:44;;;;;;;0.10;0.10;;;25.20;99.90;;;;;;5038614;28;20210;-82
2022/07/01 12:02:12;;;;;;;6.90;0.43;;;25.30;99.90;;;;;;5035072;28;20659;-83
2022/07/01 12:04:38;;;;;;;0.17;0.17;;;25.30;99.90;;;;;;5040107;28;21081;-83
2022/07/01 12:07:05;;;;;;;0.27;0.27;;;25.20;99.90;;;;;;5036656;28;20725;-84
2022/07/01 12:09:31;;;;;;;0.37;0.30;;;25.40;99.90;;;;;;5043858;28;20225;-84
2022/07/01 12:11:57;;;;;;;0.10;0.10;;;25.20;99.90;;;;;;5036650;28;20262;-83
2022/07/01 12:14:25;;;;;;;0.20;0.20;;;25.10;99.90;;;;;;5036971;28;20228;-82
2022/07/01 12:16:57;;;;;;;0.57;0.30;;;25.10;99.90;;;;;;5042133;28;20643;-83
2022/07/01 12:19:33;;;;;;;0.23;0.20;;;25.30;99.90;;;;;;5037435;28;20197;-83
2022/07/01 12:21:59;;;;;;;0.20;0.20;;;25.40;99.90;;;;;;5035483;28;20201;-84
2022/07/01 12:24:25;;;;;;;0.10;0.10;;;25.50;99.90;;;;;;5042139;28;20717;-84
2022/07/01 12:27:00;;;;;;;0.30;0.30;;;25.30;99.90;;;;;;5033888;28;20877;-83
2022/07/01 12:29:31;;;;;;;0.10;0.10;;;25.30;99.90;;;;;;5035813;28;20232;-83
2022/07/01 12:31:58;;;;;;;0.10;0.10;;;25.20;99.90;;;;;;5029936;28;20218;-82
2022/07/01 12:34:39;;;;;;;0.30;0.30;;;25.20;99.90;;;;;;5033263;28;20178;-82
2022/07/01 12:37:13;;;;;;;0.47;0.33;;;24.90;99.90;;;;;;5031257;28;20201;-83
2022/07/01 12:39:47;;;;;;;0.73;0.30;;;24.60;99.90;;;;;;5033713;28;20205;-83
2022/07/01 12:42:26;;;;;;;0.20;0.20;;;24.70;99.90;;;;;;5040400;28;20189;-82
2022/07/01 12:44:54;;;;;;;1.43;0.30;;;24.70;99.90;;;;;;5040248;28;20271;-82
2022/07/01 12:47:32;;;;;;;0.23;0.20;;;24.90;99.90;;;;;;5033573;28;21017;-83
2022/07/01 12:50:24;;;;;;;0.20;0.20;;;25.10;99.90;;;;;;5033258;28;20233;-83
2022/07/01 12:53:06;;;;;;;0.20;0.20;;;25.10;99.90;;;;;;5033532;28;20234;-82
2022/07/01 12:55:46;;;;;;;0.43;0.40;;;25.60;99.90;;;;;;5040625;28;20210;-82
2022/07/01 12:58:23;;;;;;;0.20;0.20;;;25.90;99.90;;;;;;5035097;28;20182;-83
2022/07/01 13:00:52;;;;;;;0.13;0.13;;;26.00;99.90;;;;;;5031806;28;20217;-83
2022/07/01 13:03:20;;;;;;;0.30;0.30;;;25.60;99.90;;;;;;5032792;28;20199;-83
2022/07/01 13:05:46;;;;;;;0.30;0.30;;;25.40;99.90;;;;;;5033586;28;20603;-82